sensor_id;sensor_type;location;lat;lon;timestamp;P1;durP1;ratioP1;P2;durP2;ratioP2
44147;SDS011;29810;55.848;37.368;2022-09-06T00:01:11;2.78;;;1.90;;
44147;SDS011;29810;55.848;37.368;2022-09-06T00:04:14;2.67;;;1.77;;
44147;SDS011;29810;55.848;37.368;2022-09-06T00:07:15;3.30;;;1.95;;
44147;SDS011;29810;55.848;37.368;2022-09-06T00:10:17;2.50;;;1.92;;
44147;SDS011;29810;55.848;37.368;2022-09-06T00:13:19;4.87;;;1.75;;
44147;SDS011;29810;55.848;37.368;2022-09-06T00:16:22;2.83;;;1.73;;
44147;SDS011;29810;55.848;37.368;2022-09-06T00:19:24;3.08;;;1.90;;
44147;SDS011;29810;55.848;37.368;2022-09-06T00:22:26;3.33;;;1.90;;
44147;SDS011;29810;55.848;37.368;2022-09-06T00:25:27;3.30;;;1.70;;
44147;SDS011;29810;55.848;37.368;2022-09-06T00:28:30;2.75;;;1.60;;
44147;SDS011;29810;55.848;37.368;2022-09-06T00:31:31;3.10;;;1.67;;
44147;SDS011;29810;55.848;37.368;2022-09-06T00:34:35;5.12;;;2.15;;
44147;SDS011;29810;55.848;37.368;2022-09-06T00:37:36;2.47;;;1.80;;
44147;SDS011;29810;55.848;37.368;2022-09-06T00:40:38;4.28;;;1.90;;
44147;SDS011;29810;55.848;37.368;2022-09-06T00:43:40;3.45;;;2.12;;
44147;SDS011;29810;55.848;37.368;2022-09-06T00:46:43;2.92;;;2.33;;
44147;SDS011;29810;55.848;37.368;2022-09-06T00:49:48;2.97;;;2.00;;
44147;SDS011;29810;55.848;37.368;2022-09-06T00:52:52;4.30;;;2.40;;
44147;SDS011;29810;55.848;37.368;2022-09-06T00:55:54;3.28;;;2.60;;
44147;SDS011;29810;55.848;37.368;2022-09-06T00:58:56;5.30;;;2.40;;
44147;SDS011;29810;55.848;37.368;2022-09-06T01:01:57;4.12;;;2.53;;
44147;SDS011;29810;55.848;37.368;2022-09-06T01:04:59;3.75;;;2.50;;
44147;SDS011;29810;55.848;37.368;2022-09-06T01:21:37;3.47;;;3.00;;
44147;SDS011;29810;55.848;37.368;2022-09-06T01:28:35;4.00;;;2.92;;
44147;SDS011;29810;55.848;37.368;2022-09-06T01:31:47;6.47;;;2.97;;
44147;SDS011;29810;55.848;37.368;2022-09-06T01:34:58;3.37;;;3.00;;
44147;SDS011;29810;55.848;37.368;2022-09-06T01:38:11;3.20;;;2.87;;
44147;SDS011;29810;55.848;37.368;2022-09-06T01:41:13;7.55;;;3.20;;
44147;SDS011;29810;55.848;37.368;2022-09-06T01:44:15;4.62;;;3.20;;
44147;SDS011;29810;55.848;37.368;2022-09-06T01:50:50;3.62;;;3.10;;
44147;SDS011;29810;55.848;37.368;2022-09-06T01:57:31;3.00;;;2.70;;
44147;SDS011;29810;55.848;37.368;2022-09-06T02:00:45;4.30;;;3.15;;
44147;SDS011;29810;55.848;37.368;2022-09-06T02:07:23;4.87;;;2.90;;
44147;SDS011;29810;55.848;37.368;2022-09-06T02:10:33;5.82;;;2.95;;
44147;SDS011;29810;55.848;37.368;2022-09-06T02:13:44;5.65;;;3.40;;
44147;SDS011;29810;55.848;37.368;2022-09-06T02:16:51;3.80;;;3.40;;
44147;SDS011;29810;55.848;37.368;2022-09-06T02:20:12;5.47;;;3.60;;
44147;SDS011;29810;55.848;37.368;2022-09-06T02:23:19;3.87;;;3.42;;
44147;SDS011;29810;55.848;37.368;2022-09-06T02:26:25;4.55;;;3.95;;
44147;SDS011;29810;55.848;37.368;2022-09-06T02:29:30;4.50;;;3.80;;
44147;SDS011;29810;55.848;37.368;2022-09-06T02:32:34;5.35;;;3.72;;
44147;SDS011;29810;55.848;37.368;2022-09-06T02:35:41;6.20;;;3.60;;
44147;SDS011;29810;55.848;37.368;2022-09-06T02:38:44;3.92;;;3.47;;
44147;SDS011;29810;55.848;37.368;2022-09-06T02:41:47;3.92;;;3.25;;
44147;SDS011;29810;55.848;37.368;2022-09-06T02:44:48;4.50;;;3.42;;
44147;SDS011;29810;55.848;37.368;2022-09-06T02:47:50;4.05;;;3.58;;
44147;SDS011;29810;55.848;37.368;2022-09-06T02:50:51;4.37;;;3.97;;
44147;SDS011;29810;55.848;37.368;2022-09-06T02:53:53;5.45;;;3.65;;
44147;SDS011;29810;55.848;37.368;2022-09-06T02:56:55;4.18;;;3.70;;
44147;SDS011;29810;55.848;37.368;2022-09-06T02:59:56;4.40;;;3.70;;
44147;SDS011;29810;55.848;37.368;2022-09-06T03:02:58;3.95;;;3.42;;
44147;SDS011;29810;55.848;37.368;2022-09-06T03:06:00;5.82;;;3.47;;
44147;SDS011;29810;55.848;37.368;2022-09-06T03:09:01;5.65;;;3.05;;
44147;SDS011;29810;55.848;37.368;2022-09-06T03:12:03;3.85;;;2.85;;
44147;SDS011;29810;55.848;37.368;2022-09-06T03:15:05;3.40;;;3.00;;
44147;SDS011;29810;55.848;37.368;2022-09-06T03:18:07;3.78;;;2.50;;
44147;SDS011;29810;55.848;37.368;2022-09-06T03:21:09;4.15;;;2.83;;
44147;SDS011;29810;55.848;37.368;2022-09-06T03:24:11;3.37;;;2.60;;
44147;SDS011;29810;55.848;37.368;2022-09-06T03:27:12;3.50;;;2.72;;
44147;SDS011;29810;55.848;37.368;2022-09-06T03:30:14;3.22;;;2.40;;
44147;SDS011;29810;55.848;37.368;2022-09-06T03:33:16;3.97;;;2.20;;
44147;SDS011;29810;55.848;37.368;2022-09-06T03:36:18;3.03;;;2.28;;
44147;SDS011;29810;55.848;37.368;2022-09-06T03:39:19;3.53;;;2.17;;
44147;SDS011;29810;55.848;37.368;2022-09-06T03:42:21;3.72;;;2.12;;
44147;SDS011;29810;55.848;37.368;2022-09-06T03:45:23;4.25;;;2.00;;
44147;SDS011;29810;55.848;37.368;2022-09-06T03:48:26;3.60;;;2.28;;
44147;SDS011;29810;55.848;37.368;2022-09-06T03:51:28;4.82;;;1.87;;
44147;SDS011;29810;55.848;37.368;2022-09-06T03:54:30;2.83;;;1.75;;
44147;SDS011;29810;55.848;37.368;2022-09-06T03:57:31;2.47;;;1.73;;
44147;SDS011;29810;55.848;37.368;2022-09-06T04:00:33;2.58;;;1.70;;
44147;SDS011;29810;55.848;37.368;2022-09-06T04:03:35;3.53;;;1.60;;
44147;SDS011;29810;55.848;37.368;2022-09-06T04:06:38;3.08;;;1.60;;
44147;SDS011;29810;55.848;37.368;2022-09-06T04:09:40;4.78;;;1.67;;
44147;SDS011;29810;55.848;37.368;2022-09-06T04:12:41;3.83;;;1.33;;
44147;SDS011;29810;55.848;37.368;2022-09-06T04:15:46;2.80;;;1.40;;
44147;SDS011;29810;55.848;37.368;2022-09-06T04:18:48;1.55;;;1.10;;
44147;SDS011;29810;55.848;37.368;2022-09-06T04:21:49;2.92;;;1.27;;
44147;SDS011;29810;55.848;37.368;2022-09-06T04:24:51;1.90;;;0.95;;
44147;SDS011;29810;55.848;37.368;2022-09-06T04:27:53;1.92;;;0.90;;
44147;SDS011;29810;55.848;37.368;2022-09-06T04:30:55;2.08;;;1.37;;
44147;SDS011;29810;55.848;37.368;2022-09-06T04:33:59;2.83;;;0.80;;
44147;SDS011;29810;55.848;37.368;2022-09-06T04:37:01;2.42;;;1.17;;
44147;SDS011;29810;55.848;37.368;2022-09-06T04:40:05;2.95;;;1.20;;
44147;SDS011;29810;55.848;37.368;2022-09-06T04:43:07;1.55;;;1.02;;
44147;SDS011;29810;55.848;37.368;2022-09-06T04:49:19;4.32;;;1.30;;
44147;SDS011;29810;55.848;37.368;2022-09-06T04:52:23;3.03;;;1.25;;
44147;SDS011;29810;55.848;37.368;2022-09-06T04:55:25;2.80;;;1.50;;
44147;SDS011;29810;55.848;37.368;2022-09-06T04:58:29;3.72;;;1.35;;
44147;SDS011;29810;55.848;37.368;2022-09-06T05:01:31;2.50;;;1.40;;
44147;SDS011;29810;55.848;37.368;2022-09-06T05:04:32;3.65;;;1.40;;
44147;SDS011;29810;55.848;37.368;2022-09-06T05:07:34;2.87;;;1.33;;
44147;SDS011;29810;55.848;37.368;2022-09-06T05:10:35;2.20;;;1.40;;
44147;SDS011;29810;55.848;37.368;2022-09-06T05:13:37;2.37;;;1.40;;
44147;SDS011;29810;55.848;37.368;2022-09-06T05:16:39;1.87;;;1.35;;
44147;SDS011;29810;55.848;37.368;2022-09-06T05:19:40;2.72;;;1.42;;
44147;SDS011;29810;55.848;37.368;2022-09-06T05:22:42;2.53;;;1.20;;
44147;SDS011;29810;55.848;37.368;2022-09-06T05:25:51;5.25;;;1.67;;
44147;SDS011;29810;55.848;37.368;2022-09-06T05:28:53;2.20;;;1.50;;
44147;SDS011;29810;55.848;37.368;2022-09-06T05:31:59;3.00;;;1.80;;
44147;SDS011;29810;55.848;37.368;2022-09-06T05:35:01;2.67;;;1.55;;
44147;SDS011;29810;55.848;37.368;2022-09-06T05:38:03;3.50;;;1.45;;
44147;SDS011;29810;55.848;37.368;2022-09-06T05:41:08;4.70;;;1.70;;
44147;SDS011;29810;55.848;37.368;2022-09-06T05:44:09;2.92;;;1.70;;
44147;SDS011;29810;55.848;37.368;2022-09-06T05:47:11;4.70;;;1.77;;
44147;SDS011;29810;55.848;37.368;2022-09-06T05:50:13;4.62;;;1.70;;
44147;SDS011;29810;55.848;37.368;2022-09-06T05:53:15;4.05;;;2.10;;
44147;SDS011;29810;55.848;37.368;2022-09-06T05:56:16;4.43;;;2.12;;
44147;SDS011;29810;55.848;37.368;2022-09-06T05:59:19;3.62;;;2.22;;
44147;SDS011;29810;55.848;37.368;2022-09-06T06:02:21;4.22;;;2.35;;
44147;SDS011;29810;55.848;37.368;2022-09-06T06:05:23;5.37;;;2.50;;
44147;SDS011;29810;55.848;37.368;2022-09-06T06:08:25;3.95;;;2.40;;
44147;SDS011;29810;55.848;37.368;2022-09-06T06:11:26;3.75;;;2.17;;
44147;SDS011;29810;55.848;37.368;2022-09-06T06:14:28;5.40;;;2.50;;
44147;SDS011;29810;55.848;37.368;2022-09-06T06:17:30;8.13;;;2.20;;
44147;SDS011;29810;55.848;37.368;2022-09-06T06:20:31;3.37;;;2.20;;
44147;SDS011;29810;55.848;37.368;2022-09-06T06:23:33;5.70;;;2.50;;
44147;SDS011;29810;55.848;37.368;2022-09-06T06:26:35;3.70;;;1.92;;
44147;SDS011;29810;55.848;37.368;2022-09-06T06:29:37;3.00;;;1.90;;
44147;SDS011;29810;55.848;37.368;2022-09-06T06:32:38;2.78;;;1.80;;
44147;SDS011;29810;55.848;37.368;2022-09-06T06:35:40;3.55;;;1.80;;
44147;SDS011;29810;55.848;37.368;2022-09-06T06:38:42;2.22;;;1.40;;
44147;SDS011;29810;55.848;37.368;2022-09-06T06:41:46;4.35;;;1.80;;
44147;SDS011;29810;55.848;37.368;2022-09-06T06:44:55;2.60;;;1.50;;
44147;SDS011;29810;55.848;37.368;2022-09-06T06:47:57;2.83;;;1.30;;
44147;SDS011;29810;55.848;37.368;2022-09-06T06:50:58;4.40;;;1.37;;
44147;SDS011;29810;55.848;37.368;2022-09-06T06:54:00;2.17;;;1.35;;
44147;SDS011;29810;55.848;37.368;2022-09-06T06:57:02;2.85;;;1.60;;
44147;SDS011;29810;55.848;37.368;2022-09-06T07:00:05;2.37;;;1.40;;
44147;SDS011;29810;55.848;37.368;2022-09-06T07:03:07;2.65;;;1.23;;
44147;SDS011;29810;55.848;37.368;2022-09-06T07:06:10;4.50;;;1.62;;
44147;SDS011;29810;55.848;37.368;2022-09-06T07:09:11;3.28;;;1.50;;
44147;SDS011;29810;55.848;37.368;2022-09-06T07:12:13;3.80;;;1.15;;
44147;SDS011;29810;55.848;37.368;2022-09-06T07:15:14;4.05;;;1.23;;
44147;SDS011;29810;55.848;37.368;2022-09-06T07:18:17;4.30;;;1.30;;
44147;SDS011;29810;55.848;37.368;2022-09-06T07:21:22;2.45;;;1.10;;
44147;SDS011;29810;55.848;37.368;2022-09-06T07:24:27;5.95;;;1.50;;
44147;SDS011;29810;55.848;37.368;2022-09-06T07:27:28;2.47;;;1.20;;
44147;SDS011;29810;55.848;37.368;2022-09-06T07:30:30;3.22;;;1.30;;
44147;SDS011;29810;55.848;37.368;2022-09-06T07:33:33;3.42;;;1.40;;
44147;SDS011;29810;55.848;37.368;2022-09-06T07:36:36;2.30;;;1.30;;
44147;SDS011;29810;55.848;37.368;2022-09-06T07:39:37;2.12;;;1.00;;
44147;SDS011;29810;55.848;37.368;2022-09-06T07:42:40;2.17;;;1.10;;
44147;SDS011;29810;55.848;37.368;2022-09-06T07:45:42;1.85;;;1.08;;
44147;SDS011;29810;55.848;37.368;2022-09-06T07:48:44;1.50;;;1.10;;
44147;SDS011;29810;55.848;37.368;2022-09-06T07:51:47;2.70;;;1.40;;
44147;SDS011;29810;55.848;37.368;2022-09-06T07:54:49;3.95;;;1.50;;
44147;SDS011;29810;55.848;37.368;2022-09-06T07:57:50;1.95;;;1.27;;
44147;SDS011;29810;55.848;37.368;2022-09-06T08:00:52;2.58;;;1.50;;
44147;SDS011;29810;55.848;37.368;2022-09-06T08:04:13;4.12;;;1.40;;
44147;SDS011;29810;55.848;37.368;2022-09-06T08:07:15;2.40;;;1.20;;
44147;SDS011;29810;55.848;37.368;2022-09-06T08:10:17;2.25;;;1.30;;
44147;SDS011;29810;55.848;37.368;2022-09-06T08:13:18;2.70;;;1.40;;
44147;SDS011;29810;55.848;37.368;2022-09-06T08:16:20;2.62;;;1.30;;
44147;SDS011;29810;55.848;37.368;2022-09-06T08:19:23;2.70;;;1.40;;
44147;SDS011;29810;55.848;37.368;2022-09-06T08:22:25;2.58;;;1.40;;
44147;SDS011;29810;55.848;37.368;2022-09-06T08:25:28;4.50;;;1.80;;
44147;SDS011;29810;55.848;37.368;2022-09-06T08:28:30;2.10;;;1.30;;
44147;SDS011;29810;55.848;37.368;2022-09-06T08:31:32;2.15;;;1.35;;
44147;SDS011;29810;55.848;37.368;2022-09-06T08:34:35;2.60;;;1.80;;
44147;SDS011;29810;55.848;37.368;2022-09-06T08:37:37;2.37;;;1.55;;
44147;SDS011;29810;55.848;37.368;2022-09-06T08:40:38;2.50;;;1.70;;
44147;SDS011;29810;55.848;37.368;2022-09-06T08:43:53;4.62;;;1.67;;
44147;SDS011;29810;55.848;37.368;2022-09-06T08:46:59;3.15;;;1.40;;
44147;SDS011;29810;55.848;37.368;2022-09-06T08:50:04;2.80;;;1.40;;
44147;SDS011;29810;55.848;37.368;2022-09-06T08:53:09;2.72;;;1.20;;
44147;SDS011;29810;55.848;37.368;2022-09-06T08:56:17;2.45;;;1.50;;
44147;SDS011;29810;55.848;37.368;2022-09-06T08:59:27;2.62;;;1.40;;
44147;SDS011;29810;55.848;37.368;2022-09-06T09:02:46;2.53;;;1.60;;
44147;SDS011;29810;55.848;37.368;2022-09-06T09:05:52;2.00;;;1.40;;
44147;SDS011;29810;55.848;37.368;2022-09-06T09:08:58;2.62;;;1.73;;
44147;SDS011;29810;55.848;37.368;2022-09-06T09:12:04;3.62;;;1.50;;
44147;SDS011;29810;55.848;37.368;2022-09-06T09:15:08;2.50;;;1.50;;
44147;SDS011;29810;55.848;37.368;2022-09-06T09:18:14;3.80;;;1.48;;
44147;SDS011;29810;55.848;37.368;2022-09-06T09:21:22;3.42;;;1.80;;
44147;SDS011;29810;55.848;37.368;2022-09-06T09:24:25;5.10;;;1.50;;
44147;SDS011;29810;55.848;37.368;2022-09-06T09:27:27;3.70;;;1.60;;
44147;SDS011;29810;55.848;37.368;2022-09-06T09:30:43;3.53;;;1.42;;
44147;SDS011;29810;55.848;37.368;2022-09-06T09:33:52;2.70;;;1.27;;
44147;SDS011;29810;55.848;37.368;2022-09-06T09:37:16;2.87;;;1.33;;
44147;SDS011;29810;55.848;37.368;2022-09-06T09:43:32;3.25;;;1.58;;
44147;SDS011;29810;55.848;37.368;2022-09-06T09:46:34;2.20;;;1.40;;
44147;SDS011;29810;55.848;37.368;2022-09-06T09:49:39;2.60;;;1.55;;
44147;SDS011;29810;55.848;37.368;2022-09-06T09:52:42;3.60;;;1.75;;
44147;SDS011;29810;55.848;37.368;2022-09-06T09:55:45;3.28;;;1.67;;
44147;SDS011;29810;55.848;37.368;2022-09-06T09:58:46;2.55;;;1.52;;
44147;SDS011;29810;55.848;37.368;2022-09-06T10:01:48;3.80;;;2.17;;
44147;SDS011;29810;55.848;37.368;2022-09-06T10:08:12;4.78;;;2.15;;
44147;SDS011;29810;55.848;37.368;2022-09-06T10:11:14;3.83;;;1.90;;
44147;SDS011;29810;55.848;37.368;2022-09-06T10:24:23;3.72;;;1.75;;
44147;SDS011;29810;55.848;37.368;2022-09-06T10:27:46;2.95;;;1.70;;
44147;SDS011;29810;55.848;37.368;2022-09-06T10:44:13;5.57;;;2.58;;
44147;SDS011;29810;55.848;37.368;2022-09-06T10:54:13;3.33;;;2.20;;
44147;SDS011;29810;55.848;37.368;2022-09-06T10:57:25;3.87;;;2.37;;
44147;SDS011;29810;55.848;37.368;2022-09-06T11:00:43;4.28;;;2.05;;
44147;SDS011;29810;55.848;37.368;2022-09-06T11:03:48;4.25;;;2.00;;
44147;SDS011;29810;55.848;37.368;2022-09-06T11:06:54;3.17;;;2.00;;
44147;SDS011;29810;55.848;37.368;2022-09-06T11:13:21;3.70;;;2.33;;
44147;SDS011;29810;55.848;37.368;2022-09-06T11:16:30;2.42;;;1.75;;
44147;SDS011;29810;55.848;37.368;2022-09-06T11:22:51;4.65;;;1.90;;
44147;SDS011;29810;55.848;37.368;2022-09-06T11:26:06;5.97;;;2.50;;
44147;SDS011;29810;55.848;37.368;2022-09-06T11:29:20;3.05;;;1.98;;
44147;SDS011;29810;55.848;37.368;2022-09-06T11:32:36;2.90;;;1.98;;
44147;SDS011;29810;55.848;37.368;2022-09-06T11:35:39;3.17;;;1.98;;
44147;SDS011;29810;55.848;37.368;2022-09-06T11:38:52;3.67;;;2.20;;
44147;SDS011;29810;55.848;37.368;2022-09-06T11:41:58;4.22;;;2.30;;
44147;SDS011;29810;55.848;37.368;2022-09-06T11:52:00;4.35;;;2.50;;
44147;SDS011;29810;55.848;37.368;2022-09-06T11:55:04;4.50;;;2.60;;
44147;SDS011;29810;55.848;37.368;2022-09-06T12:04:21;3.58;;;2.50;;
44147;SDS011;29810;55.848;37.368;2022-09-06T12:07:24;5.22;;;2.60;;
44147;SDS011;29810;55.848;37.368;2022-09-06T12:20:05;3.78;;;2.37;;
44147;SDS011;29810;55.848;37.368;2022-09-06T12:23:07;5.05;;;2.60;;
44147;SDS011;29810;55.848;37.368;2022-09-06T12:26:09;5.20;;;2.80;;
44147;SDS011;29810;55.848;37.368;2022-09-06T12:29:12;5.00;;;2.47;;
44147;SDS011;29810;55.848;37.368;2022-09-06T12:32:18;7.70;;;3.30;;
44147;SDS011;29810;55.848;37.368;2022-09-06T12:35:25;3.03;;;2.30;;
44147;SDS011;29810;55.848;37.368;2022-09-06T12:38:28;6.03;;;2.45;;
44147;SDS011;29810;55.848;37.368;2022-09-06T12:41:31;3.72;;;2.00;;
44147;SDS011;29810;55.848;37.368;2022-09-06T12:44:42;3.92;;;2.05;;
44147;SDS011;29810;55.848;37.368;2022-09-06T12:47:49;2.95;;;1.95;;
44147;SDS011;29810;55.848;37.368;2022-09-06T12:51:04;4.03;;;2.25;;
44147;SDS011;29810;55.848;37.368;2022-09-06T12:54:21;4.50;;;2.25;;
44147;SDS011;29810;55.848;37.368;2022-09-06T12:57:25;3.10;;;2.05;;
44147;SDS011;29810;55.848;37.368;2022-09-06T13:00:30;3.15;;;2.12;;
44147;SDS011;29810;55.848;37.368;2022-09-06T13:06:43;4.40;;;2.70;;
44147;SDS011;29810;55.848;37.368;2022-09-06T13:09:47;4.20;;;3.05;;
44147;SDS011;29810;55.848;37.368;2022-09-06T13:12:54;5.12;;;2.53;;
44147;SDS011;29810;55.848;37.368;2022-09-06T13:15:58;4.95;;;2.50;;
44147;SDS011;29810;55.848;37.368;2022-09-06T13:19:09;3.30;;;1.70;;
44147;SDS011;29810;55.848;37.368;2022-09-06T13:22:35;2.75;;;1.70;;
44147;SDS011;29810;55.848;37.368;2022-09-06T13:25:45;3.92;;;2.05;;
44147;SDS011;29810;55.848;37.368;2022-09-06T13:28:51;3.62;;;1.80;;
44147;SDS011;29810;55.848;37.368;2022-09-06T13:31:53;2.92;;;1.90;;
44147;SDS011;29810;55.848;37.368;2022-09-06T13:34:57;2.42;;;1.77;;
44147;SDS011;29810;55.848;37.368;2022-09-06T13:41:32;6.25;;;2.40;;
44147;SDS011;29810;55.848;37.368;2022-09-06T13:44:37;3.17;;;2.17;;
44147;SDS011;29810;55.848;37.368;2022-09-06T13:47:39;3.80;;;2.40;;
44147;SDS011;29810;55.848;37.368;2022-09-06T13:50:41;3.05;;;2.40;;
44147;SDS011;29810;55.848;37.368;2022-09-06T13:53:43;3.62;;;2.45;;
44147;SDS011;29810;55.848;37.368;2022-09-06T13:56:45;3.00;;;2.10;;
44147;SDS011;29810;55.848;37.368;2022-09-06T13:59:48;3.55;;;2.05;;
44147;SDS011;29810;55.848;37.368;2022-09-06T14:02:50;6.47;;;2.30;;
44147;SDS011;29810;55.848;37.368;2022-09-06T14:05:55;3.40;;;2.20;;
44147;SDS011;29810;55.848;37.368;2022-09-06T14:08:57;4.32;;;2.08;;
44147;SDS011;29810;55.848;37.368;2022-09-06T14:12:01;4.28;;;2.20;;
44147;SDS011;29810;55.848;37.368;2022-09-06T14:15:03;3.08;;;2.30;;
44147;SDS011;29810;55.848;37.368;2022-09-06T14:18:06;4.00;;;2.22;;
44147;SDS011;29810;55.848;37.368;2022-09-06T14:21:07;3.45;;;2.12;;
44147;SDS011;29810;55.848;37.368;2022-09-06T14:24:09;2.97;;;2.22;;
44147;SDS011;29810;55.848;37.368;2022-09-06T14:27:11;4.32;;;2.00;;
44147;SDS011;29810;55.848;37.368;2022-09-06T14:30:13;4.80;;;2.17;;
44147;SDS011;29810;55.848;37.368;2022-09-06T14:33:15;3.35;;;2.20;;
44147;SDS011;29810;55.848;37.368;2022-09-06T14:36:18;3.87;;;2.15;;
44147;SDS011;29810;55.848;37.368;2022-09-06T14:39:21;3.95;;;2.50;;
44147;SDS011;29810;55.848;37.368;2022-09-06T14:42:23;4.15;;;2.25;;
44147;SDS011;29810;55.848;37.368;2022-09-06T14:45:25;3.50;;;2.12;;
44147;SDS011;29810;55.848;37.368;2022-09-06T14:48:27;3.33;;;2.20;;
44147;SDS011;29810;55.848;37.368;2022-09-06T14:51:30;3.55;;;2.28;;
44147;SDS011;29810;55.848;37.368;2022-09-06T14:54:35;3.22;;;1.87;;
44147;SDS011;29810;55.848;37.368;2022-09-06T14:57:36;2.53;;;1.87;;
44147;SDS011;29810;55.848;37.368;2022-09-06T15:00:38;3.28;;;2.17;;
44147;SDS011;29810;55.848;37.368;2022-09-06T15:03:40;3.22;;;1.80;;
44147;SDS011;29810;55.848;37.368;2022-09-06T15:06:44;3.58;;;2.15;;
44147;SDS011;29810;55.848;37.368;2022-09-06T15:09:47;4.25;;;1.95;;
44147;SDS011;29810;55.848;37.368;2022-09-06T15:12:51;3.10;;;1.92;;
44147;SDS011;29810;55.848;37.368;2022-09-06T15:15:53;3.95;;;2.00;;
44147;SDS011;29810;55.848;37.368;2022-09-06T15:18:55;3.58;;;1.80;;
44147;SDS011;29810;55.848;37.368;2022-09-06T15:21:57;2.90;;;1.75;;
44147;SDS011;29810;55.848;37.368;2022-09-06T15:24:59;1.90;;;1.52;;
44147;SDS011;29810;55.848;37.368;2022-09-06T15:28:01;3.22;;;1.70;;
44147;SDS011;29810;55.848;37.368;2022-09-06T15:31:03;4.18;;;1.90;;
44147;SDS011;29810;55.848;37.368;2022-09-06T15:34:06;3.12;;;2.20;;
44147;SDS011;29810;55.848;37.368;2022-09-06T15:37:09;4.05;;;2.03;;
44147;SDS011;29810;55.848;37.368;2022-09-06T15:40:10;5.60;;;3.22;;
44147;SDS011;29810;55.848;37.368;2022-09-06T15:43:13;3.42;;;1.90;;
44147;SDS011;29810;55.848;37.368;2022-09-06T15:46:17;3.53;;;2.30;;
44147;SDS011;29810;55.848;37.368;2022-09-06T15:49:24;3.40;;;2.10;;
44147;SDS011;29810;55.848;37.368;2022-09-06T15:52:27;4.37;;;2.70;;
44147;SDS011;29810;55.848;37.368;2022-09-06T15:55:29;7.20;;;2.58;;
44147;SDS011;29810;55.848;37.368;2022-09-06T15:58:49;3.12;;;2.20;;
44147;SDS011;29810;55.848;37.368;2022-09-06T16:01:50;3.17;;;2.45;;
44147;SDS011;29810;55.848;37.368;2022-09-06T16:04:52;3.58;;;2.35;;
44147;SDS011;29810;55.848;37.368;2022-09-06T16:07:57;4.40;;;2.17;;
44147;SDS011;29810;55.848;37.368;2022-09-06T16:11:04;3.22;;;2.05;;
44147;SDS011;29810;55.848;37.368;2022-09-06T16:14:10;3.05;;;2.15;;
44147;SDS011;29810;55.848;37.368;2022-09-06T16:17:14;3.60;;;2.20;;
44147;SDS011;29810;55.848;37.368;2022-09-06T16:20:15;3.03;;;2.20;;
44147;SDS011;29810;55.848;37.368;2022-09-06T16:23:20;3.20;;;1.90;;
44147;SDS011;29810;55.848;37.368;2022-09-06T16:26:23;2.62;;;2.08;;
44147;SDS011;29810;55.848;37.368;2022-09-06T16:29:28;5.37;;;2.45;;
44147;SDS011;29810;55.848;37.368;2022-09-06T16:32:31;2.83;;;2.12;;
44147;SDS011;29810;55.848;37.368;2022-09-06T16:35:36;2.78;;;2.08;;
44147;SDS011;29810;55.848;37.368;2022-09-06T16:38:41;3.03;;;1.75;;
44147;SDS011;29810;55.848;37.368;2022-09-06T16:41:44;2.75;;;1.98;;
44147;SDS011;29810;55.848;37.368;2022-09-06T16:44:46;2.95;;;2.00;;
44147;SDS011;29810;55.848;37.368;2022-09-06T16:47:51;2.33;;;1.70;;
44147;SDS011;29810;55.848;37.368;2022-09-06T16:50:53;2.78;;;2.00;;
44147;SDS011;29810;55.848;37.368;2022-09-06T16:53:56;3.20;;;2.20;;
44147;SDS011;29810;55.848;37.368;2022-09-06T16:57:01;4.07;;;2.40;;
44147;SDS011;29810;55.848;37.368;2022-09-06T17:00:03;2.97;;;2.20;;
44147;SDS011;29810;55.848;37.368;2022-09-06T17:03:05;4.05;;;2.47;;
44147;SDS011;29810;55.848;37.368;2022-09-06T17:06:08;4.65;;;2.40;;
44147;SDS011;29810;55.848;37.368;2022-09-06T17:09:15;3.62;;;2.45;;
44147;SDS011;29810;55.848;37.368;2022-09-06T17:12:19;3.90;;;2.33;;
44147;SDS011;29810;55.848;37.368;2022-09-06T17:15:21;3.35;;;2.70;;
44147;SDS011;29810;55.848;37.368;2022-09-06T17:18:26;3.90;;;2.70;;
44147;SDS011;29810;55.848;37.368;2022-09-06T17:21:57;3.62;;;2.60;;
44147;SDS011;29810;55.848;37.368;2022-09-06T17:25:00;4.85;;;2.83;;
44147;SDS011;29810;55.848;37.368;2022-09-06T17:31:11;3.90;;;3.10;;
44147;SDS011;29810;55.848;37.368;2022-09-06T17:34:16;4.12;;;2.70;;
44147;SDS011;29810;55.848;37.368;2022-09-06T17:40:55;4.20;;;3.37;;
44147;SDS011;29810;55.848;37.368;2022-09-06T17:44:00;4.20;;;2.87;;
44147;SDS011;29810;55.848;37.368;2022-09-06T17:47:18;5.82;;;2.72;;
44147;SDS011;29810;55.848;37.368;2022-09-06T17:51:06;4.82;;;3.30;;
44147;SDS011;29810;55.848;37.368;2022-09-06T17:54:57;5.62;;;3.40;;
44147;SDS011;29810;55.848;37.368;2022-09-06T17:58:04;4.68;;;3.47;;
44147;SDS011;29810;55.848;37.368;2022-09-06T18:01:16;6.35;;;3.70;;
44147;SDS011;29810;55.848;37.368;2022-09-06T18:04:20;6.45;;;3.97;;
44147;SDS011;29810;55.848;37.368;2022-09-06T18:07:26;5.90;;;4.00;;
44147;SDS011;29810;55.848;37.368;2022-09-06T18:15:38;6.40;;;4.53;;
44147;SDS011;29810;55.848;37.368;2022-09-06T18:23:03;6.20;;;4.10;;
44147;SDS011;29810;55.848;37.368;2022-09-06T18:26:06;5.35;;;4.07;;
44147;SDS011;29810;55.848;37.368;2022-09-06T18:29:11;6.93;;;4.30;;
44147;SDS011;29810;55.848;37.368;2022-09-06T18:32:14;4.87;;;3.90;;
44147;SDS011;29810;55.848;37.368;2022-09-06T18:35:17;5.28;;;3.95;;
44147;SDS011;29810;55.848;37.368;2022-09-06T18:38:25;4.95;;;3.83;;
44147;SDS011;29810;55.848;37.368;2022-09-06T18:41:27;5.68;;;4.00;;
44147;SDS011;29810;55.848;37.368;2022-09-06T18:44:47;5.50;;;3.78;;
44147;SDS011;29810;55.848;37.368;2022-09-06T18:47:52;7.22;;;3.97;;
44147;SDS011;29810;55.848;37.368;2022-09-06T18:50:54;7.05;;;3.90;;
44147;SDS011;29810;55.848;37.368;2022-09-06T18:53:57;6.75;;;3.90;;
44147;SDS011;29810;55.848;37.368;2022-09-06T18:57:04;4.47;;;3.60;;
44147;SDS011;29810;55.848;37.368;2022-09-06T19:00:21;4.97;;;3.40;;
44147;SDS011;29810;55.848;37.368;2022-09-06T19:03:29;4.95;;;3.37;;
44147;SDS011;29810;55.848;37.368;2022-09-06T19:06:32;4.97;;;3.42;;
44147;SDS011;29810;55.848;37.368;2022-09-06T19:09:35;6.82;;;3.28;;
44147;SDS011;29810;55.848;37.368;2022-09-06T19:12:39;5.75;;;4.00;;
44147;SDS011;29810;55.848;37.368;2022-09-06T19:15:43;5.00;;;3.58;;
44147;SDS011;29810;55.848;37.368;2022-09-06T19:18:47;4.70;;;3.47;;
44147;SDS011;29810;55.848;37.368;2022-09-06T19:21:49;5.97;;;3.55;;
44147;SDS011;29810;55.848;37.368;2022-09-06T19:24:50;5.68;;;3.72;;
44147;SDS011;29810;55.848;37.368;2022-09-06T19:27:52;5.85;;;3.60;;
44147;SDS011;29810;55.848;37.368;2022-09-06T19:30:54;6.47;;;3.30;;
44147;SDS011;29810;55.848;37.368;2022-09-06T19:33:56;4.60;;;3.10;;
44147;SDS011;29810;55.848;37.368;2022-09-06T19:36:59;6.43;;;3.40;;
44147;SDS011;29810;55.848;37.368;2022-09-06T19:40:01;4.15;;;3.15;;
44147;SDS011;29810;55.848;37.368;2022-09-06T19:43:04;5.28;;;3.28;;
44147;SDS011;29810;55.848;37.368;2022-09-06T19:46:07;5.62;;;3.40;;
44147;SDS011;29810;55.848;37.368;2022-09-06T19:49:09;4.53;;;2.90;;
44147;SDS011;29810;55.848;37.368;2022-09-06T19:52:11;4.12;;;2.85;;
44147;SDS011;29810;55.848;37.368;2022-09-06T19:55:12;5.03;;;3.10;;
44147;SDS011;29810;55.848;37.368;2022-09-06T19:58:14;4.47;;;3.00;;
44147;SDS011;29810;55.848;37.368;2022-09-06T20:01:16;4.70;;;3.25;;
44147;SDS011;29810;55.848;37.368;2022-09-06T20:04:18;5.20;;;3.00;;
44147;SDS011;29810;55.848;37.368;2022-09-06T20:07:20;4.25;;;3.12;;
44147;SDS011;29810;55.848;37.368;2022-09-06T20:10:22;3.80;;;2.97;;
44147;SDS011;29810;55.848;37.368;2022-09-06T20:13:25;3.97;;;3.15;;